Shelby, Nebraska
Current Conditions -  °F | °C
As of 10:15 PM on Wednesday 26 Nov 2014 (Local Time) from KOLU Reporting Station
Clear Clear  
Wind Chill:   Ceiling: Unl
Heat Index: 18°   Visibility: 10mi
Dew Point:   Wind: 8mph
Humidity: 68%   Direction: 320°NW
Pressure: 30.46"   Gusts: NA
Location:  41.19°N, 97.43°W
Report Text: KOLU 270415Z AUTO 32007KT 10SM CLR M08/M13 A3046 RMK AO1
Loading
Personal Weather Stations






























Interactive Weather Map New forecast layout! Learn more

10-Day Weather Forecast

Advertisements
Track Severe Weather on mobile